sensor_id;sensor_type;location;lat;lon;timestamp;P1;durP1;ratioP1;P2;durP2;ratioP2
50683;SDS011;36654;45.042;38.994;2023-07-22T00:01:18;16.88;;;10.10;;
50683;SDS011;36654;45.042;38.994;2023-07-22T00:03:44;21.60;;;9.77;;
50683;SDS011;36654;45.042;38.994;2023-07-22T00:06:09;17.00;;;9.52;;
50683;SDS011;36654;45.042;38.994;2023-07-22T00:08:36;26.00;;;11.48;;
50683;SDS011;36654;45.042;38.994;2023-07-22T00:11:06;15.25;;;9.02;;
50683;SDS011;36654;45.042;38.994;2023-07-22T00:13:32;18.27;;;8.85;;
50683;SDS011;36654;45.042;38.994;2023-07-22T00:15:58;17.50;;;9.07;;
50683;SDS011;36654;45.042;38.994;2023-07-22T00:18:25;20.65;;;8.60;;
50683;SDS011;36654;45.042;38.994;2023-07-22T00:20:52;17.42;;;8.48;;
50683;SDS011;36654;45.042;38.994;2023-07-22T00:23:19;15.65;;;8.80;;
50683;SDS011;36654;45.042;38.994;2023-07-22T00:25:45;14.15;;;7.55;;
50683;SDS011;36654;45.042;38.994;2023-07-22T00:28:12;16.45;;;8.45;;
50683;SDS011;36654;45.042;38.994;2023-07-22T00:30:38;13.93;;;7.85;;
50683;SDS011;36654;45.042;38.994;2023-07-22T00:33:03;13.93;;;9.00;;
50683;SDS011;36654;45.042;38.994;2023-07-22T00:35:29;14.38;;;7.93;;
50683;SDS011;36654;45.042;38.994;2023-07-22T00:37:54;12.80;;;8.02;;
50683;SDS011;36654;45.042;38.994;2023-07-22T00:40:20;13.63;;;7.75;;
50683;SDS011;36654;45.042;38.994;2023-07-22T00:42:46;16.55;;;8.30;;
50683;SDS011;36654;45.042;38.994;2023-07-22T00:45:12;9.80;;;7.28;;
50683;SDS011;36654;45.042;38.994;2023-07-22T00:47:37;12.32;;;7.07;;
50683;SDS011;36654;45.042;38.994;2023-07-22T00:50:03;13.32;;;7.20;;
50683;SDS011;36654;45.042;38.994;2023-07-22T00:52:31;9.35;;;7.65;;
50683;SDS011;36654;45.042;38.994;2023-07-22T00:54:58;11.38;;;7.18;;
50683;SDS011;36654;45.042;38.994;2023-07-22T00:57:23;16.92;;;7.88;;
50683;SDS011;36654;45.042;38.994;2023-07-22T00:59:49;9.27;;;7.10;;
50683;SDS011;36654;45.042;38.994;2023-07-22T01:02:15;11.88;;;7.03;;
50683;SDS011;36654;45.042;38.994;2023-07-22T01:04:41;12.43;;;7.35;;
50683;SDS011;36654;45.042;38.994;2023-07-22T01:07:07;16.52;;;7.15;;
50683;SDS011;36654;45.042;38.994;2023-07-22T01:09:35;10.75;;;7.38;;
50683;SDS011;36654;45.042;38.994;2023-07-22T01:12:02;11.98;;;7.55;;
50683;SDS011;36654;45.042;38.994;2023-07-22T01:14:28;12.23;;;6.72;;
50683;SDS011;36654;45.042;38.994;2023-07-22T01:16:53;15.05;;;7.72;;
50683;SDS011;36654;45.042;38.994;2023-07-22T01:19:19;10.40;;;7.18;;
50683;SDS011;36654;45.042;38.994;2023-07-22T01:21:45;11.07;;;7.50;;
50683;SDS011;36654;45.042;38.994;2023-07-22T01:24:12;12.50;;;7.40;;
50683;SDS011;36654;45.042;38.994;2023-07-22T01:26:38;10.63;;;7.38;;
50683;SDS011;36654;45.042;38.994;2023-07-22T01:29:04;16.98;;;8.05;;
50683;SDS011;36654;45.042;38.994;2023-07-22T01:31:31;13.00;;;7.20;;
50683;SDS011;36654;45.042;38.994;2023-07-22T01:33:59;14.85;;;8.02;;
50683;SDS011;36654;45.042;38.994;2023-07-22T01:36:25;12.52;;;8.23;;
50683;SDS011;36654;45.042;38.994;2023-07-22T01:38:50;18.83;;;7.53;;
50683;SDS011;36654;45.042;38.994;2023-07-22T01:41:16;16.85;;;8.27;;
50683;SDS011;36654;45.042;38.994;2023-07-22T01:43:41;10.50;;;7.68;;
50683;SDS011;36654;45.042;38.994;2023-07-22T01:46:07;13.02;;;8.38;;
50683;SDS011;36654;45.042;38.994;2023-07-22T01:48:33;14.75;;;8.18;;
50683;SDS011;36654;45.042;38.994;2023-07-22T01:50:58;9.88;;;6.60;;
50683;SDS011;36654;45.042;38.994;2023-07-22T01:53:24;14.25;;;7.00;;
50683;SDS011;36654;45.042;38.994;2023-07-22T01:55:50;11.32;;;7.32;;
50683;SDS011;36654;45.042;38.994;2023-07-22T01:58:16;10.57;;;7.95;;
50683;SDS011;36654;45.042;38.994;2023-07-22T02:00:41;11.65;;;7.53;;
50683;SDS011;36654;45.042;38.994;2023-07-22T02:03:07;11.63;;;7.05;;
50683;SDS011;36654;45.042;38.994;2023-07-22T02:05:33;10.27;;;7.88;;
50683;SDS011;36654;45.042;38.994;2023-07-22T02:07:58;10.07;;;7.80;;
50683;SDS011;36654;45.042;38.994;2023-07-22T02:10:24;15.15;;;7.63;;
50683;SDS011;36654;45.042;38.994;2023-07-22T02:12:49;9.35;;;7.28;;
50683;SDS011;36654;45.042;38.994;2023-07-22T02:15:15;9.90;;;7.47;;
50683;SDS011;36654;45.042;38.994;2023-07-22T02:17:41;11.23;;;6.60;;
50683;SDS011;36654;45.042;38.994;2023-07-22T02:20:07;9.55;;;7.05;;
50683;SDS011;36654;45.042;38.994;2023-07-22T02:22:34;20.30;;;7.30;;
50683;SDS011;36654;45.042;38.994;2023-07-22T02:24:59;10.15;;;6.78;;
50683;SDS011;36654;45.042;38.994;2023-07-22T02:27:25;8.73;;;7.00;;
50683;SDS011;36654;45.042;38.994;2023-07-22T02:29:50;10.85;;;7.32;;
50683;SDS011;36654;45.042;38.994;2023-07-22T02:32:17;14.32;;;7.68;;
50683;SDS011;36654;45.042;38.994;2023-07-22T02:34:42;12.75;;;7.97;;
50683;SDS011;36654;45.042;38.994;2023-07-22T02:37:08;15.18;;;7.75;;
50683;SDS011;36654;45.042;38.994;2023-07-22T02:39:33;11.98;;;7.13;;
50683;SDS011;36654;45.042;38.994;2023-07-22T02:42:00;15.95;;;8.68;;
50683;SDS011;36654;45.042;38.994;2023-07-22T02:44:26;10.35;;;7.55;;
50683;SDS011;36654;45.042;38.994;2023-07-22T02:46:52;14.07;;;8.10;;
50683;SDS011;36654;45.042;38.994;2023-07-22T02:49:17;13.73;;;7.50;;
50683;SDS011;36654;45.042;38.994;2023-07-22T02:51:43;11.02;;;7.35;;
50683;SDS011;36654;45.042;38.994;2023-07-22T02:54:09;9.43;;;6.47;;
50683;SDS011;36654;45.042;38.994;2023-07-22T02:56:34;12.93;;;7.40;;
50683;SDS011;36654;45.042;38.994;2023-07-22T02:59:00;14.82;;;7.40;;
50683;SDS011;36654;45.042;38.994;2023-07-22T03:01:26;12.00;;;7.50;;
50683;SDS011;36654;45.042;38.994;2023-07-22T03:03:51;9.77;;;7.22;;
50683;SDS011;36654;45.042;38.994;2023-07-22T03:06:17;12.98;;;7.82;;
50683;SDS011;36654;45.042;38.994;2023-07-22T03:08:42;11.68;;;6.70;;
50683;SDS011;36654;45.042;38.994;2023-07-22T03:11:08;12.32;;;8.15;;
50683;SDS011;36654;45.042;38.994;2023-07-22T03:13:34;14.27;;;7.90;;
50683;SDS011;36654;45.042;38.994;2023-07-22T03:16:00;14.57;;;7.18;;
50683;SDS011;36654;45.042;38.994;2023-07-22T03:18:29;10.50;;;6.60;;
50683;SDS011;36654;45.042;38.994;2023-07-22T03:20:56;13.80;;;10.25;;
50683;SDS011;36654;45.042;38.994;2023-07-22T03:23:22;16.52;;;9.27;;
50683;SDS011;36654;45.042;38.994;2023-07-22T03:25:48;9.00;;;7.47;;
50683;SDS011;36654;45.042;38.994;2023-07-22T03:28:13;13.60;;;7.07;;
50683;SDS011;36654;45.042;38.994;2023-07-22T03:30:39;12.02;;;6.90;;
50683;SDS011;36654;45.042;38.994;2023-07-22T03:33:05;12.57;;;8.43;;
50683;SDS011;36654;45.042;38.994;2023-07-22T03:35:30;15.93;;;7.38;;
50683;SDS011;36654;45.042;38.994;2023-07-22T03:37:58;10.82;;;8.00;;
50683;SDS011;36654;45.042;38.994;2023-07-22T03:40:23;15.55;;;7.28;;
50683;SDS011;36654;45.042;38.994;2023-07-22T03:42:54;10.63;;;7.43;;
50683;SDS011;36654;45.042;38.994;2023-07-22T03:45:21;9.45;;;7.55;;
50683;SDS011;36654;45.042;38.994;2023-07-22T03:47:50;11.70;;;7.55;;
50683;SDS011;36654;45.042;38.994;2023-07-22T03:50:17;15.00;;;8.35;;
50683;SDS011;36654;45.042;38.994;2023-07-22T03:52:43;15.75;;;7.72;;
50683;SDS011;36654;45.042;38.994;2023-07-22T03:55:09;13.52;;;8.00;;
50683;SDS011;36654;45.042;38.994;2023-07-22T03:57:35;18.50;;;7.25;;
50683;SDS011;36654;45.042;38.994;2023-07-22T04:00:00;15.15;;;7.55;;
50683;SDS011;36654;45.042;38.994;2023-07-22T04:02:26;17.02;;;8.10;;
50683;SDS011;36654;45.042;38.994;2023-07-22T04:04:53;15.90;;;7.85;;
50683;SDS011;36654;45.042;38.994;2023-07-22T04:07:19;19.52;;;8.48;;
50683;SDS011;36654;45.042;38.994;2023-07-22T04:09:45;15.85;;;8.52;;
50683;SDS011;36654;45.042;38.994;2023-07-22T04:12:12;17.85;;;8.35;;
50683;SDS011;36654;45.042;38.994;2023-07-22T04:14:38;15.70;;;8.85;;
50683;SDS011;36654;45.042;38.994;2023-07-22T04:17:04;14.55;;;8.43;;
50683;SDS011;36654;45.042;38.994;2023-07-22T04:19:30;20.33;;;8.50;;
50683;SDS011;36654;45.042;38.994;2023-07-22T04:21:56;14.80;;;9.45;;
50683;SDS011;36654;45.042;38.994;2023-07-22T04:24:22;18.67;;;8.43;;
50683;SDS011;36654;45.042;38.994;2023-07-22T04:26:48;17.15;;;8.48;;
50683;SDS011;36654;45.042;38.994;2023-07-22T04:29:13;18.33;;;9.23;;
50683;SDS011;36654;45.042;38.994;2023-07-22T04:31:39;19.90;;;7.78;;
50683;SDS011;36654;45.042;38.994;2023-07-22T04:34:05;16.52;;;8.77;;
50683;SDS011;36654;45.042;38.994;2023-07-22T04:36:31;14.48;;;8.35;;
50683;SDS011;36654;45.042;38.994;2023-07-22T04:38:57;15.52;;;8.32;;
50683;SDS011;36654;45.042;38.994;2023-07-22T04:41:23;12.98;;;8.13;;
50683;SDS011;36654;45.042;38.994;2023-07-22T04:43:49;11.93;;;8.40;;
50683;SDS011;36654;45.042;38.994;2023-07-22T04:46:15;13.70;;;7.93;;
50683;SDS011;36654;45.042;38.994;2023-07-22T04:48:41;10.13;;;7.20;;
50683;SDS011;36654;45.042;38.994;2023-07-22T04:51:07;7.90;;;6.80;;
50683;SDS011;36654;45.042;38.994;2023-07-22T04:53:33;11.48;;;9.52;;
50683;SDS011;36654;45.042;38.994;2023-07-22T04:55:58;12.23;;;8.57;;
50683;SDS011;36654;45.042;38.994;2023-07-22T04:58:24;13.30;;;7.25;;
50683;SDS011;36654;45.042;38.994;2023-07-22T05:00:50;10.57;;;6.57;;
50683;SDS011;36654;45.042;38.994;2023-07-22T05:03:17;11.98;;;7.50;;
50683;SDS011;36654;45.042;38.994;2023-07-22T05:05:46;11.52;;;7.63;;
50683;SDS011;36654;45.042;38.994;2023-07-22T05:08:11;12.10;;;8.23;;
50683;SDS011;36654;45.042;38.994;2023-07-22T05:10:37;15.73;;;8.50;;
50683;SDS011;36654;45.042;38.994;2023-07-22T05:13:03;9.82;;;7.07;;
50683;SDS011;36654;45.042;38.994;2023-07-22T05:15:28;11.25;;;6.95;;
50683;SDS011;36654;45.042;38.994;2023-07-22T05:17:54;14.35;;;7.30;;
50683;SDS011;36654;45.042;38.994;2023-07-22T05:20:20;11.77;;;6.80;;
50683;SDS011;36654;45.042;38.994;2023-07-22T05:22:46;11.02;;;6.97;;
50683;SDS011;36654;45.042;38.994;2023-07-22T05:25:11;9.98;;;6.65;;
50683;SDS011;36654;45.042;38.994;2023-07-22T05:27:37;8.77;;;6.88;;
50683;SDS011;36654;45.042;38.994;2023-07-22T05:30:03;14.05;;;8.30;;
50683;SDS011;36654;45.042;38.994;2023-07-22T05:32:29;8.32;;;7.28;;
50683;SDS011;36654;45.042;38.994;2023-07-22T05:34:55;15.18;;;10.50;;
50683;SDS011;36654;45.042;38.994;2023-07-22T05:37:21;12.20;;;7.40;;
50683;SDS011;36654;45.042;38.994;2023-07-22T05:39:48;12.98;;;7.65;;
50683;SDS011;36654;45.042;38.994;2023-07-22T05:42:13;14.27;;;8.02;;
50683;SDS011;36654;45.042;38.994;2023-07-22T05:44:39;10.90;;;6.55;;
50683;SDS011;36654;45.042;38.994;2023-07-22T05:47:05;8.65;;;5.93;;
50683;SDS011;36654;45.042;38.994;2023-07-22T05:49:30;8.73;;;6.40;;
50683;SDS011;36654;45.042;38.994;2023-07-22T05:51:56;10.25;;;6.40;;
50683;SDS011;36654;45.042;38.994;2023-07-22T05:54:22;9.05;;;7.18;;
50683;SDS011;36654;45.042;38.994;2023-07-22T05:56:47;9.02;;;7.20;;
50683;SDS011;36654;45.042;38.994;2023-07-22T05:59:13;8.02;;;6.35;;
50683;SDS011;36654;45.042;38.994;2023-07-22T06:01:39;10.35;;;7.22;;
50683;SDS011;36654;45.042;38.994;2023-07-22T06:04:04;8.02;;;6.10;;
50683;SDS011;36654;45.042;38.994;2023-07-22T06:06:30;8.80;;;6.07;;
50683;SDS011;36654;45.042;38.994;2023-07-22T06:08:56;7.68;;;6.45;;
50683;SDS011;36654;45.042;38.994;2023-07-22T06:11:22;7.00;;;6.20;;
50683;SDS011;36654;45.042;38.994;2023-07-22T06:13:47;8.93;;;6.00;;
50683;SDS011;36654;45.042;38.994;2023-07-22T06:16:13;7.70;;;5.53;;
50683;SDS011;36654;45.042;38.994;2023-07-22T06:18:39;8.57;;;5.88;;
50683;SDS011;36654;45.042;38.994;2023-07-22T06:21:05;10.30;;;6.30;;
50683;SDS011;36654;45.042;38.994;2023-07-22T06:23:30;9.95;;;5.95;;
50683;SDS011;36654;45.042;38.994;2023-07-22T06:25:56;7.75;;;6.13;;
50683;SDS011;36654;45.042;38.994;2023-07-22T06:28:21;9.10;;;5.43;;
50683;SDS011;36654;45.042;38.994;2023-07-22T06:30:47;8.02;;;5.72;;
50683;SDS011;36654;45.042;38.994;2023-07-22T06:33:13;9.30;;;5.90;;
50683;SDS011;36654;45.042;38.994;2023-07-22T06:35:38;8.98;;;5.72;;
50683;SDS011;36654;45.042;38.994;2023-07-22T06:38:04;7.25;;;6.32;;
50683;SDS011;36654;45.042;38.994;2023-07-22T06:40:29;8.65;;;5.88;;
50683;SDS011;36654;45.042;38.994;2023-07-22T06:42:55;10.70;;;8.25;;
50683;SDS011;36654;45.042;38.994;2023-07-22T06:45:21;10.90;;;6.15;;
50683;SDS011;36654;45.042;38.994;2023-07-22T06:47:46;8.70;;;6.55;;
50683;SDS011;36654;45.042;38.994;2023-07-22T06:50:12;9.85;;;7.05;;
50683;SDS011;36654;45.042;38.994;2023-07-22T06:52:38;11.27;;;6.25;;
50683;SDS011;36654;45.042;38.994;2023-07-22T06:55:04;6.63;;;6.00;;
50683;SDS011;36654;45.042;38.994;2023-07-22T06:57:30;7.93;;;5.82;;
50683;SDS011;36654;45.042;38.994;2023-07-22T06:59:56;9.38;;;6.97;;
50683;SDS011;36654;45.042;38.994;2023-07-22T07:02:22;8.77;;;6.55;;
50683;SDS011;36654;45.042;38.994;2023-07-22T07:04:48;10.45;;;6.18;;
50683;SDS011;36654;45.042;38.994;2023-07-22T07:07:14;8.43;;;5.82;;
50683;SDS011;36654;45.042;38.994;2023-07-22T07:09:40;9.70;;;6.50;;
50683;SDS011;36654;45.042;38.994;2023-07-22T07:12:05;10.98;;;6.55;;
50683;SDS011;36654;45.042;38.994;2023-07-22T07:14:35;9.80;;;6.82;;
50683;SDS011;36654;45.042;38.994;2023-07-22T07:17:01;10.40;;;6.25;;
50683;SDS011;36654;45.042;38.994;2023-07-22T07:19:27;7.35;;;5.65;;
50683;SDS011;36654;45.042;38.994;2023-07-22T07:21:53;8.27;;;5.80;;
50683;SDS011;36654;45.042;38.994;2023-07-22T07:24:19;7.60;;;5.65;;
50683;SDS011;36654;45.042;38.994;2023-07-22T07:26:45;6.78;;;5.30;;
50683;SDS011;36654;45.042;38.994;2023-07-22T07:29:15;8.80;;;5.57;;
50683;SDS011;36654;45.042;38.994;2023-07-22T07:31:41;5.93;;;5.30;;
50683;SDS011;36654;45.042;38.994;2023-07-22T07:34:06;10.65;;;6.03;;
50683;SDS011;36654;45.042;38.994;2023-07-22T07:36:33;7.43;;;5.63;;
50683;SDS011;36654;45.042;38.994;2023-07-22T07:38:59;8.60;;;5.90;;
50683;SDS011;36654;45.042;38.994;2023-07-22T07:41:25;9.18;;;6.55;;
50683;SDS011;36654;45.042;38.994;2023-07-22T07:43:50;11.25;;;7.32;;
50683;SDS011;36654;45.042;38.994;2023-07-22T07:46:20;12.57;;;5.97;;
50683;SDS011;36654;45.042;38.994;2023-07-22T07:48:51;10.10;;;6.15;;
50683;SDS011;36654;45.042;38.994;2023-07-22T07:51:18;8.68;;;5.70;;
50683;SDS011;36654;45.042;38.994;2023-07-22T07:53:45;8.13;;;6.97;;
50683;SDS011;36654;45.042;38.994;2023-07-22T07:56:15;9.60;;;6.20;;
50683;SDS011;36654;45.042;38.994;2023-07-22T07:58:42;7.10;;;6.00;;
50683;SDS011;36654;45.042;38.994;2023-07-22T08:01:08;6.75;;;5.70;;
50683;SDS011;36654;45.042;38.994;2023-07-22T08:03:35;9.00;;;6.40;;
50683;SDS011;36654;45.042;38.994;2023-07-22T08:06:01;10.05;;;5.55;;
50683;SDS011;36654;45.042;38.994;2023-07-22T08:08:28;7.88;;;5.85;;
50683;SDS011;36654;45.042;38.994;2023-07-22T08:13:35;7.65;;;6.38;;
50683;SDS011;36654;45.042;38.994;2023-07-22T08:16:02;10.85;;;7.38;;
50683;SDS011;36654;45.042;38.994;2023-07-22T08:18:29;12.55;;;7.82;;
50683;SDS011;36654;45.042;38.994;2023-07-22T08:20:56;9.25;;;6.90;;
50683;SDS011;36654;45.042;38.994;2023-07-22T08:23:22;9.95;;;6.50;;
50683;SDS011;36654;45.042;38.994;2023-07-22T08:25:48;10.43;;;6.85;;
50683;SDS011;36654;45.042;38.994;2023-07-22T08:28:14;10.30;;;7.00;;
50683;SDS011;36654;45.042;38.994;2023-07-22T08:30:40;10.05;;;6.20;;
50683;SDS011;36654;45.042;38.994;2023-07-22T08:33:07;9.85;;;6.32;;
50683;SDS011;36654;45.042;38.994;2023-07-22T08:35:37;12.25;;;6.32;;
50683;SDS011;36654;45.042;38.994;2023-07-22T08:38:04;10.30;;;6.60;;
50683;SDS011;36654;45.042;38.994;2023-07-22T08:40:37;9.65;;;6.45;;
50683;SDS011;36654;45.042;38.994;2023-07-22T08:43:04;10.23;;;6.60;;
50683;SDS011;36654;45.042;38.994;2023-07-22T08:45:32;17.13;;;6.38;;
50683;SDS011;36654;45.042;38.994;2023-07-22T08:48:08;12.27;;;6.43;;
50683;SDS011;36654;45.042;38.994;2023-07-22T08:53:12;9.65;;;6.57;;
50683;SDS011;36654;45.042;38.994;2023-07-22T08:55:38;9.90;;;6.80;;
50683;SDS011;36654;45.042;38.994;2023-07-22T08:58:10;10.52;;;6.88;;
50683;SDS011;36654;45.042;38.994;2023-07-22T09:00:36;12.63;;;7.43;;
50683;SDS011;36654;45.042;38.994;2023-07-22T09:03:03;8.90;;;6.07;;
50683;SDS011;36654;45.042;38.994;2023-07-22T09:05:31;10.73;;;6.57;;
50683;SDS011;36654;45.042;38.994;2023-07-22T09:07:58;10.60;;;6.50;;
50683;SDS011;36654;45.042;38.994;2023-07-22T09:12:52;13.60;;;7.13;;
50683;SDS011;36654;45.042;38.994;2023-07-22T09:15:18;11.57;;;7.53;;
50683;SDS011;36654;45.042;38.994;2023-07-22T09:17:44;9.38;;;7.47;;
50683;SDS011;36654;45.042;38.994;2023-07-22T09:20:14;11.15;;;6.75;;
50683;SDS011;36654;45.042;38.994;2023-07-22T09:22:47;10.70;;;7.10;;
50683;SDS011;36654;45.042;38.994;2023-07-22T09:27:47;8.90;;;6.60;;
50683;SDS011;36654;45.042;38.994;2023-07-22T09:30:20;9.25;;;6.93;;
50683;SDS011;36654;45.042;38.994;2023-07-22T09:32:47;10.60;;;6.20;;
50683;SDS011;36654;45.042;38.994;2023-07-22T09:35:13;12.00;;;7.28;;
50683;SDS011;36654;45.042;38.994;2023-07-22T09:37:39;12.68;;;7.07;;
50683;SDS011;36654;45.042;38.994;2023-07-22T09:40:14;9.10;;;6.65;;
50683;SDS011;36654;45.042;38.994;2023-07-22T09:42:45;11.82;;;7.20;;
50683;SDS011;36654;45.042;38.994;2023-07-22T09:45:12;9.18;;;6.80;;
50683;SDS011;36654;45.042;38.994;2023-07-22T09:47:42;8.70;;;6.50;;
50683;SDS011;36654;45.042;38.994;2023-07-22T09:50:15;10.23;;;6.85;;
50683;SDS011;36654;45.042;38.994;2023-07-22T09:55:14;8.45;;;6.45;;
50683;SDS011;36654;45.042;38.994;2023-07-22T09:57:44;11.60;;;6.97;;
50683;SDS011;36654;45.042;38.994;2023-07-22T10:00:12;9.82;;;6.93;;
50683;SDS011;36654;45.042;38.994;2023-07-22T10:02:43;9.35;;;6.72;;
50683;SDS011;36654;45.042;38.994;2023-07-22T10:05:14;7.20;;;6.32;;
50683;SDS011;36654;45.042;38.994;2023-07-22T10:07:46;8.60;;;7.22;;
50683;SDS011;36654;45.042;38.994;2023-07-22T10:10:18;8.63;;;6.68;;
50683;SDS011;36654;45.042;38.994;2023-07-22T10:12:45;10.50;;;7.10;;
50683;SDS011;36654;45.042;38.994;2023-07-22T10:15:15;9.65;;;6.85;;
50683;SDS011;36654;45.042;38.994;2023-07-22T10:17:43;9.15;;;6.95;;
50683;SDS011;36654;45.042;38.994;2023-07-22T10:20:10;12.18;;;7.40;;
50683;SDS011;36654;45.042;38.994;2023-07-22T10:22:43;10.70;;;8.18;;
50683;SDS011;36654;45.042;38.994;2023-07-22T10:25:14;8.40;;;7.50;;
50683;SDS011;36654;45.042;38.994;2023-07-22T10:27:42;11.68;;;6.68;;
50683;SDS011;36654;45.042;38.994;2023-07-22T10:30:09;8.25;;;7.40;;
50683;SDS011;36654;45.042;38.994;2023-07-22T10:32:36;10.68;;;7.53;;
50683;SDS011;36654;45.042;38.994;2023-07-22T10:35:04;10.70;;;7.40;;
50683;SDS011;36654;45.042;38.994;2023-07-22T10:37:33;7.70;;;6.75;;
50683;SDS011;36654;45.042;38.994;2023-07-22T10:40:00;8.48;;;6.38;;
50683;SDS011;36654;45.042;38.994;2023-07-22T10:45:24;14.63;;;6.78;;
50683;SDS011;36654;45.042;38.994;2023-07-22T10:48:33;8.93;;;6.78;;
50683;SDS011;36654;45.042;38.994;2023-07-22T10:50:49;8.68;;;6.80;;
50683;SDS011;36654;45.042;38.994;2023-07-22T10:56:03;14.15;;;7.63;;
50683;SDS011;36654;45.042;38.994;2023-07-22T11:04:11;11.55;;;7.10;;
50683;SDS011;36654;45.042;38.994;2023-07-22T11:12:02;12.02;;;6.78;;
50683;SDS011;36654;45.042;38.994;2023-07-22T11:14:30;12.38;;;8.10;;
50683;SDS011;36654;45.042;38.994;2023-07-22T11:16:57;14.45;;;7.45;;
50683;SDS011;36654;45.042;38.994;2023-07-22T11:19:24;9.90;;;6.50;;
50683;SDS011;36654;45.042;38.994;2023-07-22T11:21:51;8.68;;;6.22;;
50683;SDS011;36654;45.042;38.994;2023-07-22T11:24:18;9.43;;;6.15;;
50683;SDS011;36654;45.042;38.994;2023-07-22T11:26:44;10.05;;;6.88;;
50683;SDS011;36654;45.042;38.994;2023-07-22T11:29:14;10.73;;;7.57;;
50683;SDS011;36654;45.042;38.994;2023-07-22T11:31:43;11.52;;;7.07;;
50683;SDS011;36654;45.042;38.994;2023-07-22T11:34:11;11.30;;;6.57;;
50683;SDS011;36654;45.042;38.994;2023-07-22T11:36:39;10.88;;;6.32;;
50683;SDS011;36654;45.042;38.994;2023-07-22T11:39:06;14.90;;;7.18;;
50683;SDS011;36654;45.042;38.994;2023-07-22T11:41:34;14.40;;;7.45;;
50683;SDS011;36654;45.042;38.994;2023-07-22T11:44:01;13.57;;;7.70;;
50683;SDS011;36654;45.042;38.994;2023-07-22T11:46:32;8.95;;;6.20;;
50683;SDS011;36654;45.042;38.994;2023-07-22T11:48:59;10.55;;;6.78;;
50683;SDS011;36654;45.042;38.994;2023-07-22T11:51:25;9.10;;;6.85;;
50683;SDS011;36654;45.042;38.994;2023-07-22T11:53:51;12.05;;;7.10;;
50683;SDS011;36654;45.042;38.994;2023-07-22T11:56:20;11.13;;;7.10;;
50683;SDS011;36654;45.042;38.994;2023-07-22T11:58:54;10.38;;;6.43;;
50683;SDS011;36654;45.042;38.994;2023-07-22T12:01:21;12.07;;;6.97;;
50683;SDS011;36654;45.042;38.994;2023-07-22T12:03:48;7.28;;;6.13;;
50683;SDS011;36654;45.042;38.994;2023-07-22T12:06:14;10.07;;;6.15;;
50683;SDS011;36654;45.042;38.994;2023-07-22T12:08:48;12.77;;;6.22;;
50683;SDS011;36654;45.042;38.994;2023-07-22T12:11:21;13.88;;;7.45;;
50683;SDS011;36654;45.042;38.994;2023-07-22T12:16:33;11.07;;;6.63;;
50683;SDS011;36654;45.042;38.994;2023-07-22T12:19:01;9.77;;;6.38;;
50683;SDS011;36654;45.042;38.994;2023-07-22T12:21:28;9.38;;;5.93;;
50683;SDS011;36654;45.042;38.994;2023-07-22T12:23:54;11.27;;;6.30;;
50683;SDS011;36654;45.042;38.994;2023-07-22T12:26:19;11.05;;;7.03;;
50683;SDS011;36654;45.042;38.994;2023-07-22T12:28:45;8.50;;;6.05;;
50683;SDS011;36654;45.042;38.994;2023-07-22T12:31:11;10.07;;;6.30;;
50683;SDS011;36654;45.042;38.994;2023-07-22T12:33:37;8.45;;;5.05;;
50683;SDS011;36654;45.042;38.994;2023-07-22T12:36:04;7.68;;;5.45;;
50683;SDS011;36654;45.042;38.994;2023-07-22T12:38:30;7.10;;;4.32;;
50683;SDS011;36654;45.042;38.994;2023-07-22T12:40:56;5.50;;;4.60;;
50683;SDS011;36654;45.042;38.994;2023-07-22T12:43:22;6.40;;;4.95;;
50683;SDS011;36654;45.042;38.994;2023-07-22T12:45:48;9.20;;;5.20;;
50683;SDS011;36654;45.042;38.994;2023-07-22T12:48:13;5.05;;;4.22;;
50683;SDS011;36654;45.042;38.994;2023-07-22T12:50:39;7.93;;;4.75;;
50683;SDS011;36654;45.042;38.994;2023-07-22T12:53:05;5.78;;;4.85;;
50683;SDS011;36654;45.042;38.994;2023-07-22T12:55:31;8.38;;;4.40;;
50683;SDS011;36654;45.042;38.994;2023-07-22T12:57:56;5.18;;;4.65;;
50683;SDS011;36654;45.042;38.994;2023-07-22T13:00:22;6.07;;;4.57;;
50683;SDS011;36654;45.042;38.994;2023-07-22T13:02:47;12.65;;;4.43;;
50683;SDS011;36654;45.042;38.994;2023-07-22T13:05:13;6.55;;;4.68;;
50683;SDS011;36654;45.042;38.994;2023-07-22T13:07:39;7.60;;;4.35;;
50683;SDS011;36654;45.042;38.994;2023-07-22T13:10:05;6.10;;;5.22;;
50683;SDS011;36654;45.042;38.994;2023-07-22T13:12:39;9.43;;;4.88;;
50683;SDS011;36654;45.042;38.994;2023-07-22T13:15:05;7.32;;;4.50;;
50683;SDS011;36654;45.042;38.994;2023-07-22T13:17:31;13.05;;;5.20;;
50683;SDS011;36654;45.042;38.994;2023-07-22T13:19:57;10.80;;;6.15;;
50683;SDS011;36654;45.042;38.994;2023-07-22T13:22:22;14.43;;;4.88;;
50683;SDS011;36654;45.042;38.994;2023-07-22T13:24:48;6.90;;;4.53;;
50683;SDS011;36654;45.042;38.994;2023-07-22T13:27:14;8.32;;;4.80;;
50683;SDS011;36654;45.042;38.994;2023-07-22T13:29:39;6.78;;;4.88;;
50683;SDS011;36654;45.042;38.994;2023-07-22T13:32:05;8.27;;;4.60;;
50683;SDS011;36654;45.042;38.994;2023-07-22T13:34:31;8.38;;;4.30;;
50683;SDS011;36654;45.042;38.994;2023-07-22T13:36:57;8.18;;;4.32;;
50683;SDS011;36654;45.042;38.994;2023-07-22T13:39:23;5.20;;;4.53;;
50683;SDS011;36654;45.042;38.994;2023-07-22T13:41:49;5.13;;;4.63;;
50683;SDS011;36654;45.042;38.994;2023-07-22T13:44:15;6.32;;;5.03;;
50683;SDS011;36654;45.042;38.994;2023-07-22T13:46:41;5.88;;;5.30;;
50683;SDS011;36654;45.042;38.994;2023-07-22T13:49:07;7.47;;;4.93;;
50683;SDS011;36654;45.042;38.994;2023-07-22T13:51:33;8.05;;;5.22;;
50683;SDS011;36654;45.042;38.994;2023-07-22T13:53:58;9.40;;;4.72;;
50683;SDS011;36654;45.042;38.994;2023-07-22T13:56:24;5.95;;;4.93;;
50683;SDS011;36654;45.042;38.994;2023-07-22T13:58:50;8.18;;;4.55;;
50683;SDS011;36654;45.042;38.994;2023-07-22T14:01:15;6.70;;;4.65;;
50683;SDS011;36654;45.042;38.994;2023-07-22T14:03:41;9.82;;;5.03;;
50683;SDS011;36654;45.042;38.994;2023-07-22T14:06:07;8.35;;;5.05;;
50683;SDS011;36654;45.042;38.994;2023-07-22T14:08:33;9.05;;;5.22;;
50683;SDS011;36654;45.042;38.994;2023-07-22T14:10:59;7.53;;;5.30;;
50683;SDS011;36654;45.042;38.994;2023-07-22T14:13:24;8.00;;;5.32;;
50683;SDS011;36654;45.042;38.994;2023-07-22T14:15:50;7.85;;;5.05;;
50683;SDS011;36654;45.042;38.994;2023-07-22T14:18:16;9.82;;;5.38;;
50683;SDS011;36654;45.042;38.994;2023-07-22T14:20:43;10.55;;;4.88;;
50683;SDS011;36654;45.042;38.994;2023-07-22T14:23:09;7.90;;;4.95;;
50683;SDS011;36654;45.042;38.994;2023-07-22T14:25:34;9.60;;;5.03;;
50683;SDS011;36654;45.042;38.994;2023-07-22T14:28:00;7.78;;;5.10;;
50683;SDS011;36654;45.042;38.994;2023-07-22T14:30:25;10.57;;;4.80;;
50683;SDS011;36654;45.042;38.994;2023-07-22T14:32:52;8.77;;;4.70;;
50683;SDS011;36654;45.042;38.994;2023-07-22T14:35:17;6.53;;;4.95;;
50683;SDS011;36654;45.042;38.994;2023-07-22T14:37:44;9.63;;;5.28;;
50683;SDS011;36654;45.042;38.994;2023-07-22T14:40:11;8.85;;;5.28;;
50683;SDS011;36654;45.042;38.994;2023-07-22T14:42:37;12.73;;;5.53;;
50683;SDS011;36654;45.042;38.994;2023-07-22T14:45:03;8.75;;;4.97;;
50683;SDS011;36654;45.042;38.994;2023-07-22T14:47:30;11.85;;;6.38;;
50683;SDS011;36654;45.042;38.994;2023-07-22T14:49:56;8.93;;;5.03;;
50683;SDS011;36654;45.042;38.994;2023-07-22T14:52:21;7.03;;;4.80;;
50683;SDS011;36654;45.042;38.994;2023-07-22T14:54:48;13.80;;;9.00;;